Jimma, Ethiopia
Current Conditions -  °F | °C
As of 6:00 AM on Saturday 25 Oct 2014 (Local Time) from HAAB Reporting Station
Clear Clear  
Wind Chill: 50°   Ceiling: Unl
Heat Index: 50°   Visibility: 6mi
Dew Point: 36°   Wind: 5mph
Humidity: 58%   Direction: 270°W
Pressure: 30.36"   Gusts: NA
Location:  7.68°N, 36.83°E
Report Text: HAAB 250300Z 27004KT C A V O K 10/02 Q1028
Loading
Personal Weather Stations






























Interactive Weather Map
Tropical Storm Tracking
New forecast layout! Learn more

10-Day Weather Forecast

Advertisements
Track Severe Weather on mobile